sensor_id;sensor_type;location;lat;lon;timestamp;temperature;humidity
69823;SHT31;57119;52.516;13.508;2023-05-02T00:00:19;13.71;63.72
69823;SHT31;57119;52.516;13.508;2023-05-02T00:02:45;13.66;63.83
69823;SHT31;57119;52.516;13.508;2023-05-02T00:05:10;13.57;63.88
69823;SHT31;57119;52.516;13.508;2023-05-02T00:07:36;13.45;64.72
69823;SHT31;57119;52.516;13.508;2023-05-02T00:10:02;13.42;64.69
69823;SHT31;57119;52.516;13.508;2023-05-02T00:12:28;13.41;64.46
69823;SHT31;57119;52.516;13.508;2023-05-02T00:14:53;13.33;64.59
69823;SHT31;57119;52.516;13.508;2023-05-02T00:17:19;13.20;65.96
69823;SHT31;57119;52.516;13.508;2023-05-02T00:19:45;13.10;66.60
69823;SHT31;57119;52.516;13.508;2023-05-02T00:22:10;12.99;67.18
69823;SHT31;57119;52.516;13.508;2023-05-02T00:24:36;12.96;65.91
69823;SHT31;57119;52.516;13.508;2023-05-02T00:27:01;12.96;65.81
69823;SHT31;57119;52.516;13.508;2023-05-02T00:29:26;12.94;65.71
69823;SHT31;57119;52.516;13.508;2023-05-02T00:31:52;12.96;65.04
69823;SHT31;57119;52.516;13.508;2023-05-02T00:34:17;12.99;65.18
69823;SHT31;57119;52.516;13.508;2023-05-02T00:36:42;12.93;65.22
69823;SHT31;57119;52.516;13.508;2023-05-02T00:39:08;12.92;64.90
69823;SHT31;57119;52.516;13.508;2023-05-02T00:41:33;12.99;64.68
69823;SHT31;57119;52.516;13.508;2023-05-02T00:43:59;12.99;64.31
69823;SHT31;57119;52.516;13.508;2023-05-02T00:46:24;13.00;64.00
69823;SHT31;57119;52.516;13.508;2023-05-02T00:48:50;12.94;64.01
69823;SHT31;57119;52.516;13.508;2023-05-02T00:51:15;12.97;63.61
69823;SHT31;57119;52.516;13.508;2023-05-02T00:53:41;12.97;63.81
69823;SHT31;57119;52.516;13.508;2023-05-02T00:56:07;13.07;63.61
69823;SHT31;57119;52.516;13.508;2023-05-02T00:58:34;13.07;63.64
69823;SHT31;57119;52.516;13.508;2023-05-02T01:06:30;13.27;63.71
69823;SHT31;57119;52.516;13.508;2023-05-02T01:12:27;13.20;64.39
69823;SHT31;57119;52.516;13.508;2023-05-02T01:14:57;13.13;64.85
69823;SHT31;57119;52.516;13.508;2023-05-02T01:17:28;13.06;65.55
69823;SHT31;57119;52.516;13.508;2023-05-02T01:19:57;13.00;65.81
69823;SHT31;57119;52.516;13.508;2023-05-02T01:22:27;13.02;66.09
69823;SHT31;57119;52.516;13.508;2023-05-02T01:30:42;13.00;67.16
69823;SHT31;57119;52.516;13.508;2023-05-02T01:33:10;12.94;67.52
69823;SHT31;57119;52.516;13.508;2023-05-02T01:35:36;12.93;67.97
69823;SHT31;57119;52.516;13.508;2023-05-02T01:38:04;12.94;68.23
69823;SHT31;57119;52.516;13.508;2023-05-02T01:40:32;12.89;68.42
69823;SHT31;57119;52.516;13.508;2023-05-02T01:42:58;12.94;68.56
69823;SHT31;57119;52.516;13.508;2023-05-02T01:45:24;13.03;68.39
69823;SHT31;57119;52.516;13.508;2023-05-02T01:47:51;13.03;68.57
69823;SHT31;57119;52.516;13.508;2023-05-02T01:50:20;13.07;68.41
69823;SHT31;57119;52.516;13.508;2023-05-02T01:52:49;13.02;68.83
69823;SHT31;57119;52.516;13.508;2023-05-02T01:55:16;13.02;68.86
69823;SHT31;57119;52.516;13.508;2023-05-02T01:57:43;13.03;68.88
69823;SHT31;57119;52.516;13.508;2023-05-02T02:00:10;13.00;69.08
69823;SHT31;57119;52.516;13.508;2023-05-02T02:02:38;12.96;69.30
69823;SHT31;57119;52.516;13.508;2023-05-02T02:05:06;12.80;69.84
69823;SHT31;57119;52.516;13.508;2023-05-02T02:07:32;12.70;70.14
69823;SHT31;57119;52.516;13.508;2023-05-02T02:09:58;12.67;70.51
69823;SHT31;57119;52.516;13.508;2023-05-02T02:12:34;12.60;70.78
69823;SHT31;57119;52.516;13.508;2023-05-02T02:15:16;12.56;71.10
69823;SHT31;57119;52.516;13.508;2023-05-02T02:17:46;12.49;71.42
69823;SHT31;57119;52.516;13.508;2023-05-02T02:20:14;12.48;71.43
69823;SHT31;57119;52.516;13.508;2023-05-02T02:22:41;12.44;71.53
69823;SHT31;57119;52.516;13.508;2023-05-02T02:25:14;12.39;71.93
69823;SHT31;57119;52.516;13.508;2023-05-02T02:27:40;12.39;71.76
69823;SHT31;57119;52.516;13.508;2023-05-02T02:30:11;12.34;71.94
69823;SHT31;57119;52.516;13.508;2023-05-02T02:32:36;12.29;72.15
69823;SHT31;57119;52.516;13.508;2023-05-02T02:35:02;12.24;72.51
69823;SHT31;57119;52.516;13.508;2023-05-02T02:43:25;11.90;73.53
69823;SHT31;57119;52.516;13.508;2023-05-02T02:52:02;11.56;74.60
69823;SHT31;57119;52.516;13.508;2023-05-02T02:54:40;11.55;74.91
69823;SHT31;57119;52.516;13.508;2023-05-02T02:59:41;11.47;74.80
69823;SHT31;57119;52.516;13.508;2023-05-02T03:02:14;11.36;75.40
69823;SHT31;57119;52.516;13.508;2023-05-02T03:04:42;11.25;75.44
69823;SHT31;57119;52.516;13.508;2023-05-02T03:07:08;11.31;75.37
69823;SHT31;57119;52.516;13.508;2023-05-02T03:09:44;11.19;75.79
69823;SHT31;57119;52.516;13.508;2023-05-02T03:12:10;11.08;76.23
69823;SHT31;57119;52.516;13.508;2023-05-02T03:14:37;11.01;76.20
69823;SHT31;57119;52.516;13.508;2023-05-02T03:17:02;11.04;76.10
69823;SHT31;57119;52.516;13.508;2023-05-02T03:19:28;10.94;76.31
69823;SHT31;57119;52.516;13.508;2023-05-02T03:21:53;10.98;76.24
69823;SHT31;57119;52.516;13.508;2023-05-02T03:24:19;10.92;76.52
69823;SHT31;57119;52.516;13.508;2023-05-02T03:26:44;10.88;76.85
69823;SHT31;57119;52.516;13.508;2023-05-02T03:29:11;10.81;76.95
69823;SHT31;57119;52.516;13.508;2023-05-02T03:31:37;10.81;77.00
69823;SHT31;57119;52.516;13.508;2023-05-02T03:34:02;10.75;77.26
69823;SHT31;57119;52.516;13.508;2023-05-02T03:36:27;10.70;77.38
69823;SHT31;57119;52.516;13.508;2023-05-02T03:38:53;10.74;77.42
69823;SHT31;57119;52.516;13.508;2023-05-02T03:41:18;10.74;77.61
69823;SHT31;57119;52.516;13.508;2023-05-02T03:43:45;10.77;77.62
69823;SHT31;57119;52.516;13.508;2023-05-02T03:46:10;10.81;77.59
69823;SHT31;57119;52.516;13.508;2023-05-02T03:48:36;10.74;77.89
69823;SHT31;57119;52.516;13.508;2023-05-02T03:51:03;10.64;78.24
69823;SHT31;57119;52.516;13.508;2023-05-02T03:53:29;10.57;78.45
69823;SHT31;57119;52.516;13.508;2023-05-02T03:55:56;10.56;78.49
69823;SHT31;57119;52.516;13.508;2023-05-02T03:58:21;10.60;78.40
69823;SHT31;57119;52.516;13.508;2023-05-02T04:00:47;10.67;78.40
69823;SHT31;57119;52.516;13.508;2023-05-02T04:03:12;10.65;78.45
69823;SHT31;57119;52.516;13.508;2023-05-02T04:05:37;10.61;78.77
69823;SHT31;57119;52.516;13.508;2023-05-02T04:08:03;10.63;78.76
69823;SHT31;57119;52.516;13.508;2023-05-02T04:10:28;10.67;78.82
69823;SHT31;57119;52.516;13.508;2023-05-02T04:12:54;10.74;78.77
69823;SHT31;57119;52.516;13.508;2023-05-02T04:15:19;10.73;78.98
69823;SHT31;57119;52.516;13.508;2023-05-02T04:17:45;10.81;78.75
69823;SHT31;57119;52.516;13.508;2023-05-02T04:20:11;10.81;78.91
69823;SHT31;57119;52.516;13.508;2023-05-02T04:22:36;10.87;78.77
69823;SHT31;57119;52.516;13.508;2023-05-02T04:25:04;10.92;78.87
69823;SHT31;57119;52.516;13.508;2023-05-02T04:27:30;10.94;79.01
69823;SHT31;57119;52.516;13.508;2023-05-02T04:29:56;10.98;78.76
69823;SHT31;57119;52.516;13.508;2023-05-02T04:32:21;10.95;79.00
69823;SHT31;57119;52.516;13.508;2023-05-02T04:34:47;10.98;78.98
69823;SHT31;57119;52.516;13.508;2023-05-02T04:37:12;11.08;78.83
69823;SHT31;57119;52.516;13.508;2023-05-02T04:39:37;11.14;78.82
69823;SHT31;57119;52.516;13.508;2023-05-02T04:42:03;11.18;79.03
69823;SHT31;57119;52.516;13.508;2023-05-02T04:44:28;11.28;78.62
69823;SHT31;57119;52.516;13.508;2023-05-02T04:46:53;11.32;78.68
69823;SHT31;57119;52.516;13.508;2023-05-02T04:49:19;11.40;78.51
69823;SHT31;57119;52.516;13.508;2023-05-02T04:51:44;11.53;78.08
69823;SHT31;57119;52.516;13.508;2023-05-02T04:54:10;11.65;78.01
69823;SHT31;57119;52.516;13.508;2023-05-02T04:56:36;11.77;77.76
69823;SHT31;57119;52.516;13.508;2023-05-02T04:59:01;11.84;76.99
69823;SHT31;57119;52.516;13.508;2023-05-02T05:01:26;11.87;76.89
69823;SHT31;57119;52.516;13.508;2023-05-02T05:03:53;11.93;76.82
69823;SHT31;57119;52.516;13.508;2023-05-02T05:06:18;11.98;76.67
69823;SHT31;57119;52.516;13.508;2023-05-02T05:08:44;12.08;76.68
69823;SHT31;57119;52.516;13.508;2023-05-02T05:11:10;12.24;76.61
69823;SHT31;57119;52.516;13.508;2023-05-02T05:13:35;12.29;76.12
69823;SHT31;57119;52.516;13.508;2023-05-02T05:16:02;12.37;75.98
69823;SHT31;57119;52.516;13.508;2023-05-02T05:18:28;12.29;76.28
69823;SHT31;57119;52.516;13.508;2023-05-02T05:20:53;12.35;75.87
69823;SHT31;57119;52.516;13.508;2023-05-02T05:23:18;12.39;75.75
69823;SHT31;57119;52.516;13.508;2023-05-02T05:25:44;12.46;76.26
69823;SHT31;57119;52.516;13.508;2023-05-02T05:28:09;12.37;76.13
69823;SHT31;57119;52.516;13.508;2023-05-02T05:30:35;12.38;76.27
69823;SHT31;57119;52.516;13.508;2023-05-02T05:33:00;12.32;76.52
69823;SHT31;57119;52.516;13.508;2023-05-02T05:35:26;12.22;76.57
69823;SHT31;57119;52.516;13.508;2023-05-02T05:37:51;12.24;76.70
69823;SHT31;57119;52.516;13.508;2023-05-02T05:40:17;12.29;76.63
69823;SHT31;57119;52.516;13.508;2023-05-02T05:42:42;12.44;76.60
69823;SHT31;57119;52.516;13.508;2023-05-02T05:45:08;12.45;76.62
69823;SHT31;57119;52.516;13.508;2023-05-02T05:47:34;12.58;76.73
69823;SHT31;57119;52.516;13.508;2023-05-02T05:50:00;12.69;76.46
69823;SHT31;57119;52.516;13.508;2023-05-02T05:52:25;12.72;75.90
69823;SHT31;57119;52.516;13.508;2023-05-02T05:54:54;12.80;76.22
69823;SHT31;57119;52.516;13.508;2023-05-02T05:57:22;12.87;76.14
69823;SHT31;57119;52.516;13.508;2023-05-02T05:59:48;12.93;75.95
69823;SHT31;57119;52.516;13.508;2023-05-02T06:02:13;13.07;75.61
69823;SHT31;57119;52.516;13.508;2023-05-02T06:04:39;13.10;75.61
69823;SHT31;57119;52.516;13.508;2023-05-02T06:07:05;13.08;75.71
69823;SHT31;57119;52.516;13.508;2023-05-02T06:09:30;13.20;76.00
69823;SHT31;57119;52.516;13.508;2023-05-02T06:11:56;13.28;75.67
69823;SHT31;57119;52.516;13.508;2023-05-02T06:14:22;13.27;75.62
69823;SHT31;57119;52.516;13.508;2023-05-02T06:16:48;13.27;75.62
69823;SHT31;57119;52.516;13.508;2023-05-02T06:19:13;13.30;75.81
69823;SHT31;57119;52.516;13.508;2023-05-02T06:21:39;13.50;75.96
69823;SHT31;57119;52.516;13.508;2023-05-02T06:24:05;13.71;75.17
69823;SHT31;57119;52.516;13.508;2023-05-02T06:26:30;13.92;74.85
69823;SHT31;57119;52.516;13.508;2023-05-02T06:28:55;14.05;74.45
69823;SHT31;57119;52.516;13.508;2023-05-02T06:31:21;14.17;74.79
69823;SHT31;57119;52.516;13.508;2023-05-02T06:33:46;14.17;74.22
69823;SHT31;57119;52.516;13.508;2023-05-02T06:36:12;14.09;74.27
69823;SHT31;57119;52.516;13.508;2023-05-02T06:38:37;14.33;74.15
69823;SHT31;57119;52.516;13.508;2023-05-02T06:41:02;14.44;74.09
69823;SHT31;57119;52.516;13.508;2023-05-02T06:43:28;14.57;74.15
69823;SHT31;57119;52.516;13.508;2023-05-02T06:45:54;14.95;73.97
69823;SHT31;57119;52.516;13.508;2023-05-02T06:48:20;15.20;73.20
69823;SHT31;57119;52.516;13.508;2023-05-02T06:50:46;15.36;72.53
69823;SHT31;57119;52.516;13.508;2023-05-02T06:53:12;15.46;72.57
69823;SHT31;57119;52.516;13.508;2023-05-02T06:55:37;15.65;71.97
69823;SHT31;57119;52.516;13.508;2023-05-02T06:58:03;15.68;71.86
69823;SHT31;57119;52.516;13.508;2023-05-02T07:00:28;15.54;72.18
69823;SHT31;57119;52.516;13.508;2023-05-02T07:02:53;15.67;72.31
69823;SHT31;57119;52.516;13.508;2023-05-02T07:05:19;16.34;70.78
69823;SHT31;57119;52.516;13.508;2023-05-02T07:07:44;16.06;70.71
69823;SHT31;57119;52.516;13.508;2023-05-02T07:10:10;15.67;71.59
69823;SHT31;57119;52.516;13.508;2023-05-02T07:12:36;15.65;71.65
69823;SHT31;57119;52.516;13.508;2023-05-02T07:15:04;15.46;72.72
69823;SHT31;57119;52.516;13.508;2023-05-02T07:17:30;15.08;73.19
69823;SHT31;57119;52.516;13.508;2023-05-02T07:19:56;15.36;73.17
69823;SHT31;57119;52.516;13.508;2023-05-02T07:22:21;15.87;71.62
69823;SHT31;57119;52.516;13.508;2023-05-02T07:24:47;15.87;71.92
69823;SHT31;57119;52.516;13.508;2023-05-02T07:27:12;15.75;71.90
69823;SHT31;57119;52.516;13.508;2023-05-02T07:29:37;16.23;71.26
69823;SHT31;57119;52.516;13.508;2023-05-02T07:32:03;16.48;70.14
69823;SHT31;57119;52.516;13.508;2023-05-02T07:34:29;16.90;70.20
69823;SHT31;57119;52.516;13.508;2023-05-02T07:36:55;17.22;68.69
69823;SHT31;57119;52.516;13.508;2023-05-02T07:39:21;17.87;67.97
69823;SHT31;57119;52.516;13.508;2023-05-02T07:41:51;17.39;68.58
69823;SHT31;57119;52.516;13.508;2023-05-02T07:44:16;16.98;68.86
69823;SHT31;57119;52.516;13.508;2023-05-02T07:46:41;16.90;69.38
69823;SHT31;57119;52.516;13.508;2023-05-02T07:49:07;16.56;69.98
69823;SHT31;57119;52.516;13.508;2023-05-02T07:51:32;16.34;70.43
69823;SHT31;57119;52.516;13.508;2023-05-02T07:53:57;16.42;70.84
69823;SHT31;57119;52.516;13.508;2023-05-02T07:56:24;16.04;71.84
69823;SHT31;57119;52.516;13.508;2023-05-02T07:58:49;16.08;71.99
69823;SHT31;57119;52.516;13.508;2023-05-02T08:01:18;15.77;73.05
69823;SHT31;57119;52.516;13.508;2023-05-02T08:03:44;15.51;73.31
69823;SHT31;57119;52.516;13.508;2023-05-02T08:06:10;14.99;74.40
69823;SHT31;57119;52.516;13.508;2023-05-02T08:08:36;14.96;75.02
69823;SHT31;57119;52.516;13.508;2023-05-02T08:11:02;14.78;75.28
69823;SHT31;57119;52.516;13.508;2023-05-02T08:13:27;14.84;75.23
69823;SHT31;57119;52.516;13.508;2023-05-02T08:15:53;14.77;75.49
69823;SHT31;57119;52.516;13.508;2023-05-02T08:18:25;14.77;76.59
69823;SHT31;57119;52.516;13.508;2023-05-02T08:20:51;14.98;75.39
69823;SHT31;57119;52.516;13.508;2023-05-02T08:23:17;15.02;75.12
69823;SHT31;57119;52.516;13.508;2023-05-02T08:25:43;14.89;75.34
69823;SHT31;57119;52.516;13.508;2023-05-02T08:28:08;15.23;74.76
69823;SHT31;57119;52.516;13.508;2023-05-02T08:30:34;15.30;74.44
69823;SHT31;57119;52.516;13.508;2023-05-02T08:32:59;15.51;73.60
69823;SHT31;57119;52.516;13.508;2023-05-02T08:35:24;15.56;74.09
69823;SHT31;57119;52.516;13.508;2023-05-02T08:37:50;15.63;73.42
69823;SHT31;57119;52.516;13.508;2023-05-02T08:40:16;15.65;73.22
69823;SHT31;57119;52.516;13.508;2023-05-02T08:42:43;15.65;72.86
69823;SHT31;57119;52.516;13.508;2023-05-02T08:45:11;15.40;74.01
69823;SHT31;57119;52.516;13.508;2023-05-02T08:47:41;15.08;74.66
69823;SHT31;57119;52.516;13.508;2023-05-02T08:50:09;14.89;75.64
69823;SHT31;57119;52.516;13.508;2023-05-02T08:52:37;14.72;76.15
69823;SHT31;57119;52.516;13.508;2023-05-02T08:55:04;14.63;76.87
69823;SHT31;57119;52.516;13.508;2023-05-02T08:57:30;14.54;77.07
69823;SHT31;57119;52.516;13.508;2023-05-02T08:59:56;14.65;76.97
69823;SHT31;57119;52.516;13.508;2023-05-02T09:02:41;14.92;76.64
69823;SHT31;57119;52.516;13.508;2023-05-02T09:05:10;14.98;75.80
69823;SHT31;57119;52.516;13.508;2023-05-02T09:07:47;15.00;75.76
69823;SHT31;57119;52.516;13.508;2023-05-02T09:10:14;15.05;75.85
69823;SHT31;57119;52.516;13.508;2023-05-02T09:12:39;15.16;75.53
69823;SHT31;57119;52.516;13.508;2023-05-02T09:17:43;15.02;75.95
69823;SHT31;57119;52.516;13.508;2023-05-02T09:20:10;15.30;75.21
69823;SHT31;57119;52.516;13.508;2023-05-02T09:22:36;15.88;73.87
69823;SHT31;57119;52.516;13.508;2023-05-02T09:25:01;16.00;73.89
69823;SHT31;57119;52.516;13.508;2023-05-02T09:27:27;15.43;74.91
69823;SHT31;57119;52.516;13.508;2023-05-02T09:30:18;15.08;76.09
69823;SHT31;57119;52.516;13.508;2023-05-02T09:32:45;15.40;75.57
69823;SHT31;57119;52.516;13.508;2023-05-02T09:35:11;15.80;74.66
69823;SHT31;57119;52.516;13.508;2023-05-02T09:37:36;15.81;74.63
69823;SHT31;57119;52.516;13.508;2023-05-02T09:40:05;15.63;74.79
69823;SHT31;57119;52.516;13.508;2023-05-02T09:42:31;15.56;75.81
69823;SHT31;57119;52.516;13.508;2023-05-02T09:44:57;15.29;75.95
69823;SHT31;57119;52.516;13.508;2023-05-02T09:47:26;15.09;76.60
69823;SHT31;57119;52.516;13.508;2023-05-02T09:49:51;14.61;77.77
69823;SHT31;57119;52.516;13.508;2023-05-02T09:52:19;14.31;78.83
69823;SHT31;57119;52.516;13.508;2023-05-02T09:54:46;14.33;79.00
69823;SHT31;57119;52.516;13.508;2023-05-02T09:57:11;14.42;79.39
69823;SHT31;57119;52.516;13.508;2023-05-02T09:59:38;14.52;78.52
69823;SHT31;57119;52.516;13.508;2023-05-02T10:02:05;14.64;78.48
69823;SHT31;57119;52.516;13.508;2023-05-02T10:04:32;14.79;78.03
69823;SHT31;57119;52.516;13.508;2023-05-02T10:06:59;15.12;77.11
69823;SHT31;57119;52.516;13.508;2023-05-02T10:09:25;15.33;76.91
69823;SHT31;57119;52.516;13.508;2023-05-02T10:11:53;15.50;76.04
69823;SHT31;57119;52.516;13.508;2023-05-02T10:14:20;15.42;75.42
69823;SHT31;57119;52.516;13.508;2023-05-02T10:19:56;15.65;75.09
69823;SHT31;57119;52.516;13.508;2023-05-02T10:22:21;15.71;74.72
69823;SHT31;57119;52.516;13.508;2023-05-02T10:24:51;15.84;75.12
69823;SHT31;57119;52.516;13.508;2023-05-02T10:27:17;15.73;74.56
69823;SHT31;57119;52.516;13.508;2023-05-02T10:29:43;15.36;74.97
69823;SHT31;57119;52.516;13.508;2023-05-02T10:32:10;15.20;75.78
69823;SHT31;57119;52.516;13.508;2023-05-02T10:34:35;15.16;76.39
69823;SHT31;57119;52.516;13.508;2023-05-02T10:37:01;15.02;76.95
69823;SHT31;57119;52.516;13.508;2023-05-02T10:39:28;15.08;76.85
69823;SHT31;57119;52.516;13.508;2023-05-02T10:41:54;14.77;77.95
69823;SHT31;57119;52.516;13.508;2023-05-02T10:44:41;15.02;77.45
69823;SHT31;57119;52.516;13.508;2023-05-02T10:47:20;15.15;77.24
69823;SHT31;57119;52.516;13.508;2023-05-02T10:49:58;15.10;77.63
69823;SHT31;57119;52.516;13.508;2023-05-02T10:52:36;15.15;77.54
69823;SHT31;57119;52.516;13.508;2023-05-02T10:55:22;15.12;77.35
69823;SHT31;57119;52.516;13.508;2023-05-02T11:00:24;14.27;78.98
69823;SHT31;57119;52.516;13.508;2023-05-02T11:02:50;14.16;79.65
69823;SHT31;57119;52.516;13.508;2023-05-02T11:05:15;14.08;79.53
69823;SHT31;57119;52.516;13.508;2023-05-02T11:07:41;14.17;79.37
69823;SHT31;57119;52.516;13.508;2023-05-02T11:12:48;13.93;79.10
69823;SHT31;57119;52.516;13.508;2023-05-02T11:15:52;13.86;79.34
69823;SHT31;57119;52.516;13.508;2023-05-02T11:18:05;13.51;79.81
69823;SHT31;57119;52.516;13.508;2023-05-02T11:20:32;13.55;79.87
69823;SHT31;57119;52.516;13.508;2023-05-02T11:23:19;13.62;79.55
69823;SHT31;57119;52.516;13.508;2023-05-02T11:25:54;13.63;79.71
69823;SHT31;57119;52.516;13.508;2023-05-02T11:31:02;13.62;79.25
69823;SHT31;57119;52.516;13.508;2023-05-02T11:33:28;13.71;78.46
69823;SHT31;57119;52.516;13.508;2023-05-02T11:35:54;14.24;76.80
69823;SHT31;57119;52.516;13.508;2023-05-02T11:38:21;14.72;74.84
69823;SHT31;57119;52.516;13.508;2023-05-02T11:43:20;16.92;69.31
69823;SHT31;57119;52.516;13.508;2023-05-02T11:45:46;18.20;65.55
69823;SHT31;57119;52.516;13.508;2023-05-02T11:48:12;17.17;65.50
69823;SHT31;57119;52.516;13.508;2023-05-02T11:50:53;16.34;68.10
69823;SHT31;57119;52.516;13.508;2023-05-02T11:53:21;16.46;67.35
69823;SHT31;57119;52.516;13.508;2023-05-02T11:55:49;16.83;66.41
69823;SHT31;57119;52.516;13.508;2023-05-02T11:58:16;16.12;67.90
69823;SHT31;57119;52.516;13.508;2023-05-02T12:00:43;15.71;67.75
69823;SHT31;57119;52.516;13.508;2023-05-02T12:05:48;15.35;68.15
69823;SHT31;57119;52.516;13.508;2023-05-02T12:08:41;14.77;69.00
69823;SHT31;57119;52.516;13.508;2023-05-02T12:11:07;14.50;70.36
69823;SHT31;57119;52.516;13.508;2023-05-02T12:13:33;14.40;70.27
69823;SHT31;57119;52.516;13.508;2023-05-02T12:15:59;14.09;70.80
69823;SHT31;57119;52.516;13.508;2023-05-02T12:18:25;13.71;71.49
69823;SHT31;57119;52.516;13.508;2023-05-02T12:20:52;13.72;71.62
69823;SHT31;57119;52.516;13.508;2023-05-02T12:23:22;13.57;71.88
69823;SHT31;57119;52.516;13.508;2023-05-02T12:25:48;13.65;72.26
69823;SHT31;57119;52.516;13.508;2023-05-02T12:28:15;13.99;71.23
69823;SHT31;57119;52.516;13.508;2023-05-02T12:30:41;14.06;70.72
69823;SHT31;57119;52.516;13.508;2023-05-02T12:33:06;14.20;70.85
69823;SHT31;57119;52.516;13.508;2023-05-02T12:35:33;14.00;70.52
69823;SHT31;57119;52.516;13.508;2023-05-02T12:38:11;14.08;70.31
69823;SHT31;57119;52.516;13.508;2023-05-02T12:40:36;14.31;69.76
69823;SHT31;57119;52.516;13.508;2023-05-02T12:43:03;14.48;69.41
69823;SHT31;57119;52.516;13.508;2023-05-02T12:45:30;15.19;67.89
69823;SHT31;57119;52.516;13.508;2023-05-02T12:48:01;14.89;67.24
69823;SHT31;57119;52.516;13.508;2023-05-02T12:50:37;14.65;68.03
69823;SHT31;57119;52.516;13.508;2023-05-02T12:53:03;14.69;68.36
69823;SHT31;57119;52.516;13.508;2023-05-02T12:55:29;15.27;67.12
69823;SHT31;57119;52.516;13.508;2023-05-02T12:58:03;16.02;66.10
69823;SHT31;57119;52.516;13.508;2023-05-02T13:00:36;16.92;64.19
69823;SHT31;57119;52.516;13.508;2023-05-02T13:03:03;17.90;62.33
69823;SHT31;57119;52.516;13.508;2023-05-02T13:05:28;18.38;60.45
69823;SHT31;57119;52.516;13.508;2023-05-02T13:07:54;18.88;59.40
69823;SHT31;57119;52.516;13.508;2023-05-02T13:10:23;18.13;59.64
69823;SHT31;57119;52.516;13.508;2023-05-02T13:12:50;17.63;59.82
69823;SHT31;57119;52.516;13.508;2023-05-02T13:15:17;17.98;59.18
69823;SHT31;57119;52.516;13.508;2023-05-02T13:17:43;19.99;57.14
69823;SHT31;57119;52.516;13.508;2023-05-02T13:20:09;19.96;56.21
69823;SHT31;57119;52.516;13.508;2023-05-02T13:22:35;17.98;59.08
69823;SHT31;57119;52.516;13.508;2023-05-02T13:25:02;15.71;62.87
69823;SHT31;57119;52.516;13.508;2023-05-02T13:27:27;16.28;63.65
69823;SHT31;57119;52.516;13.508;2023-05-02T13:29:53;16.08;62.89
69823;SHT31;57119;52.516;13.508;2023-05-02T13:32:18;16.61;60.98
69823;SHT31;57119;52.516;13.508;2023-05-02T13:34:44;15.78;62.16
69823;SHT31;57119;52.516;13.508;2023-05-02T13:37:09;16.52;61.19
69823;SHT31;57119;52.516;13.508;2023-05-02T13:39:35;16.66;60.40
69823;SHT31;57119;52.516;13.508;2023-05-02T13:42:00;17.52;58.97
69823;SHT31;57119;52.516;13.508;2023-05-02T13:44:27;19.34;55.38
69823;SHT31;57119;52.516;13.508;2023-05-02T13:46:53;18.20;56.82
69823;SHT31;57119;52.516;13.508;2023-05-02T13:49:18;17.67;58.32
69823;SHT31;57119;52.516;13.508;2023-05-02T13:51:43;18.15;58.00
69823;SHT31;57119;52.516;13.508;2023-05-02T13:54:09;19.34;54.39
69823;SHT31;57119;52.516;13.508;2023-05-02T13:56:34;19.24;54.60
69823;SHT31;57119;52.516;13.508;2023-05-02T13:59:00;19.85;53.61
69823;SHT31;57119;52.516;13.508;2023-05-02T14:01:25;20.10;52.79
69823;SHT31;57119;52.516;13.508;2023-05-02T14:03:52;18.37;55.36
69823;SHT31;57119;52.516;13.508;2023-05-02T14:06:17;18.18;55.86
69823;SHT31;57119;52.516;13.508;2023-05-02T14:08:43;17.85;57.47
69823;SHT31;57119;52.516;13.508;2023-05-02T14:11:09;17.08;59.51
69823;SHT31;57119;52.516;13.508;2023-05-02T14:13:34;19.24;54.34
69823;SHT31;57119;52.516;13.508;2023-05-02T14:16:00;17.67;56.48
69823;SHT31;57119;52.516;13.508;2023-05-02T14:18:25;17.03;58.46
69823;SHT31;57119;52.516;13.508;2023-05-02T14:20:50;18.38;54.91
69823;SHT31;57119;52.516;13.508;2023-05-02T14:23:16;18.83;54.30
69823;SHT31;57119;52.516;13.508;2023-05-02T14:25:41;18.79;53.65
69823;SHT31;57119;52.516;13.508;2023-05-02T14:28:06;17.90;54.96
69823;SHT31;57119;52.516;13.508;2023-05-02T14:30:32;18.48;55.24
69823;SHT31;57119;52.516;13.508;2023-05-02T14:32:57;17.62;56.08
69823;SHT31;57119;52.516;13.508;2023-05-02T14:35:23;16.59;57.80
69823;SHT31;57119;52.516;13.508;2023-05-02T14:37:48;15.47;59.96
69823;SHT31;57119;52.516;13.508;2023-05-02T14:40:14;14.77;61.53
69823;SHT31;57119;52.516;13.508;2023-05-02T14:42:40;14.88;61.95
69823;SHT31;57119;52.516;13.508;2023-05-02T14:45:07;14.56;62.03
69823;SHT31;57119;52.516;13.508;2023-05-02T14:47:32;14.24;62.32
69823;SHT31;57119;52.516;13.508;2023-05-02T14:49:58;13.98;63.41
69823;SHT31;57119;52.516;13.508;2023-05-02T14:52:23;13.87;63.86
69823;SHT31;57119;52.516;13.508;2023-05-02T14:54:49;13.66;64.45
69823;SHT31;57119;52.516;13.508;2023-05-02T14:57:14;13.30;64.35
69823;SHT31;57119;52.516;13.508;2023-05-02T14:59:40;13.03;65.53
69823;SHT31;57119;52.516;13.508;2023-05-02T15:02:06;12.60;66.10
69823;SHT31;57119;52.516;13.508;2023-05-02T15:04:32;12.41;66.69
69823;SHT31;57119;52.516;13.508;2023-05-02T15:06:59;12.32;67.39
69823;SHT31;57119;52.516;13.508;2023-05-02T15:09:24;12.21;67.17
69823;SHT31;57119;52.516;13.508;2023-05-02T15:11:53;12.20;67.46
69823;SHT31;57119;52.516;13.508;2023-05-02T15:14:19;12.41;67.53
69823;SHT31;57119;52.516;13.508;2023-05-02T15:16:44;12.38;66.95
69823;SHT31;57119;52.516;13.508;2023-05-02T15:19:10;12.34;66.96
69823;SHT31;57119;52.516;13.508;2023-05-02T15:21:35;12.32;66.49
69823;SHT31;57119;52.516;13.508;2023-05-02T15:24:01;12.00;67.32
69823;SHT31;57119;52.516;13.508;2023-05-02T15:26:28;11.73;68.14
69823;SHT31;57119;52.516;13.508;2023-05-02T15:28:53;11.70;68.48
69823;SHT31;57119;52.516;13.508;2023-05-02T15:31:20;11.69;68.49
69823;SHT31;57119;52.516;13.508;2023-05-02T15:33:45;11.47;68.83
69823;SHT31;57119;52.516;13.508;2023-05-02T15:36:11;11.66;68.75
69823;SHT31;57119;52.516;13.508;2023-05-02T15:38:36;11.83;68.10
69823;SHT31;57119;52.516;13.508;2023-05-02T15:41:07;11.97;67.60
69823;SHT31;57119;52.516;13.508;2023-05-02T15:43:33;13.48;64.78
69823;SHT31;57119;52.516;13.508;2023-05-02T15:45:59;16.05;58.92
69823;SHT31;57119;52.516;13.508;2023-05-02T15:48:29;17.19;54.74
69823;SHT31;57119;52.516;13.508;2023-05-02T15:50:55;18.66;52.81
69823;SHT31;57119;52.516;13.508;2023-05-02T15:53:21;19.28;51.33
69823;SHT31;57119;52.516;13.508;2023-05-02T15:55:47;19.62;50.07
69823;SHT31;57119;52.516;13.508;2023-05-02T15:58:13;19.90;50.37
69823;SHT31;57119;52.516;13.508;2023-05-02T16:00:38;19.00;50.63